Time;durP1;ratioP1;P1;durP2;ratioP2;P2;SDS_P1;SDS_P2;PMS_P1;PMS_P2;Temp;Humidity;BMP_temperature;BMP_pressure;BME280_temperature;BME280_humidity;BME280_pressure;Samples;Min_cycle;Max_cycle;Signal;HPM_P1;HPM_P2
2024/02/19 00:01:18;;;;;;;3.90;2.40;;;;;;;1.75;100.00;101991.05;105926;1251;71543;-77
2024/02/19 00:03:47;;;;;;;3.70;3.20;;;;;;;1.74;100.00;101986.92;105818;1251;59934;-75
2024/02/19 00:06:14;;;;;;;2.60;2.40;;;;;;;1.77;100.00;101986.04;105934;1252;60164;-77
2024/02/19 00:08:42;;;;;;;5.40;3.60;;;;;;;1.77;100.00;101983.11;106023;1256;72361;-73
2024/02/19 00:11:10;;;;;;;5.80;3.80;;;;;;;1.74;100.00;101983.13;106718;1249;62830;-75
2024/02/19 00:13:38;;;;;;;4.70;3.20;;;;;;;1.68;100.00;101985.35;105947;1251;71164;-75
2024/02/19 00:16:06;;;;;;;3.70;2.60;;;;;;;1.64;100.00;101985.20;106030;1255;63319;-75
2024/02/19 00:18:35;;;;;;;6.40;3.30;;;;;;;1.64;100.00;101984.67;105923;1256;59756;-76
2024/02/19 00:21:03;;;;;;;2.60;2.30;;;;;;;1.64;100.00;101979.49;106078;1256;73517;-74
2024/02/19 00:23:34;;;;;;;3.20;2.00;;;;;;;1.64;100.00;101977.27;106210;1250;62401;-75
2024/02/19 00:26:01;;;;;;;3.20;1.90;;;;;;;1.64;100.00;101976.23;106018;1255;72791;-77
2024/02/19 00:28:29;;;;;;;3.10;2.10;;;;;;;1.65;100.00;101974.34;105861;1251;61221;-76
2024/02/19 00:30:58;;;;;;;2.80;2.00;;;;;;;1.64;100.00;101974.86;105804;1250;59484;-78
2024/02/19 00:33:26;;;;;;;3.30;1.80;;;;;;;1.59;100.00;101976.41;105946;1250;73176;-76
2024/02/19 00:35:53;;;;;;;2.10;1.70;;;;;;;1.51;100.00;101979.34;105829;1251;63824;-77
2024/02/19 00:38:21;;;;;;;1.90;1.60;;;;;;;1.47;100.00;101977.80;105838;1257;71433;-76
2024/02/19 00:40:49;;;;;;;2.00;1.70;;;;;;;1.48;100.00;101977.64;105774;1254;59745;-74
2024/02/19 00:43:16;;;;;;;2.40;1.80;;;;;;;1.49;100.00;101977.63;106002;1250;60074;-75
2024/02/19 00:45:44;;;;;;;2.20;1.70;;;;;;;1.50;100.00;101977.45;105806;1251;73518;-76
2024/02/19 00:48:12;;;;;;;4.30;2.10;;;;;;;1.51;100.00;101980.39;105971;1256;63640;-76
2024/02/19 00:50:41;;;;;;;1.50;1.40;;;;;;;1.50;100.00;101982.11;105982;1256;72666;-76
2024/02/19 00:53:09;;;;;;;2.60;1.70;;;;;;;1.48;100.00;101980.55;109627;1251;60746;-75
2024/02/19 00:55:36;;;;;;;1.80;1.70;;;;;;;1.48;100.00;101979.52;109726;1249;60052;-75
2024/02/19 00:58:04;;;;;;;1.80;1.70;;;;;;;1.50;100.00;101982.10;109665;1250;74835;-76
2024/02/19 01:00:33;;;;;;;1.70;1.60;;;;;;;1.53;100.00;101978.66;109717;1251;63983;-74
2024/02/19 01:06:11;;;;;;;2.20;2.00;;;;;;;1.59;100.00;101980.38;103232;1286;600908;-76
2024/02/19 01:08:39;;;;;;;5.40;1.80;;;;;;;1.58;100.00;101978.14;105670;1254;59305;-74
2024/02/19 01:11:06;;;;;;;2.20;1.80;;;;;;;1.59;100.00;101977.61;105706;1254;59247;-73
2024/02/19 01:13:33;;;;;;;2.20;2.00;;;;;;;1.61;100.00;101978.98;105852;1257;72153;-78
2024/02/19 01:16:01;;;;;;;2.30;1.70;;;;;;;1.63;100.00;101979.34;105766;1252;63621;-78
2024/02/19 01:18:29;;;;;;;2.00;1.60;;;;;;;1.62;100.00;101976.58;105752;1252;73993;-77
2024/02/19 01:20:57;;;;;;;2.20;1.20;;;;;;;1.57;100.00;101977.79;105517;1251;448745;-76
2024/02/19 01:23:26;;;;;;;4.20;1.60;;;;;;;1.54;100.00;101978.14;105867;1254;59342;-77
2024/02/19 01:25:55;;;;;;;2.20;1.80;;;;;;;1.51;100.00;101984.52;105769;1251;70919;-76
2024/02/19 01:28:23;;;;;;;2.70;1.50;;;;;;;1.46;100.00;101984.86;106069;1250;62473;-77
2024/02/19 01:30:50;;;;;;;2.10;1.70;;;;;;;1.43;100.00;101983.66;105943;1255;72728;-76
2024/02/19 01:33:21;;;;;;;2.40;1.90;;;;;;;1.39;100.00;101988.30;105957;1251;60206;-75
2024/02/19 01:35:49;;;;;;;3.40;2.70;;;;;;;1.35;100.00;101988.83;105968;1250;60118;-74
2024/02/19 01:38:16;;;;;;;2.00;1.70;;;;;;;1.32;100.00;101988.65;106031;1251;72958;-72
2024/02/19 01:40:43;;;;;;;1.30;1.20;;;;;;;1.32;100.00;101988.48;105954;1254;63565;-75
2024/02/19 01:43:11;;;;;;;1.50;1.40;;;;;;;1.31;100.00;101988.30;105966;1251;71392;-73
2024/02/19 01:45:39;;;;;;;1.70;1.60;;;;;;;1.28;100.00;101990.20;106031;1248;61536;-76
2024/02/19 01:48:08;;;;;;;3.30;1.20;;;;;;;1.26;100.00;101990.38;106005;1254;59570;-75
2024/02/19 01:50:35;;;;;;;1.50;1.40;;;;;;;1.22;100.00;101991.23;106122;1254;71037;-76
2024/02/19 01:53:08;;;;;;;1.50;1.40;;;;;;;1.22;100.00;101994.52;106066;1254;63535;-76
2024/02/19 01:55:36;;;;;;;2.10;1.90;;;;;;;1.19;100.00;101999.83;105929;1251;72851;-77
2024/02/19 01:58:06;;;;;;;1.40;1.30;;;;;;;1.19;100.00;101997.25;106034;1251;59626;-78
2024/02/19 02:00:37;;;;;;;2.10;1.30;;;;;;;1.18;100.00;102002.27;106005;1256;60715;-76
2024/02/19 02:03:05;;;;;;;1.40;1.20;;;;;;;1.18;100.00;102001.05;105963;1251;71853;-76
2024/02/19 02:05:33;;;;;;;2.70;1.40;;;;;;;1.19;100.00;102002.77;106028;1254;63584;-75
2024/02/19 02:08:05;;;;;;;1.70;1.60;;;;;;;1.18;100.00;102002.25;105897;1257;72665;-75
2024/02/19 02:10:32;;;;;;;1.50;1.40;;;;;;;1.14;100.00;102005.00;106055;1251;59735;-77
2024/02/19 02:13:00;;;;;;;2.00;1.40;;;;;;;1.10;100.00;102004.13;106105;1254;59552;-77
2024/02/19 02:15:28;;;;;;;1.30;1.20;;;;;;;1.06;100.00;102002.92;106091;1251;71821;-74
2024/02/19 02:17:55;;;;;;;1.80;1.50;;;;;;;1.04;100.00;102005.34;106004;1254;63663;-75
2024/02/19 02:20:23;;;;;;;1.50;1.40;;;;;;;1.04;100.00;102003.61;105993;1252;70625;-79
2024/02/19 02:22:52;;;;;;;2.30;1.60;;;;;;;1.04;100.00;102003.95;106015;1251;59695;-75
2024/02/19 02:25:21;;;;;;;2.20;1.70;;;;;;;1.03;100.00;102005.67;105929;1257;59794;-74
2024/02/19 02:27:49;;;;;;;2.80;1.30;;;;;;;1.03;100.00;102003.26;106082;1251;71722;-75
2024/02/19 02:30:17;;;;;;;1.70;1.30;;;;;;;1.01;100.00;102008.08;106009;1254;63570;-76
2024/02/19 02:32:44;;;;;;;2.20;1.50;;;;;;;0.98;100.00;102010.66;106092;1251;72586;-75
2024/02/19 02:35:15;;;;;;;1.30;1.30;;;;;;;0.93;100.00;102008.92;105982;1251;61135;-75
2024/02/19 02:37:42;;;;;;;1.70;1.60;;;;;;;0.90;100.00;102010.46;106484;1254;59560;-71
2024/02/19 02:40:10;;;;;;;1.40;1.00;;;;;;;0.84;100.00;102009.94;106837;1252;70852;-73
2024/02/19 02:42:37;;;;;;;1.80;1.50;;;;;;;0.81;100.00;102013.71;106223;1252;63215;-75
2024/02/19 02:45:06;;;;;;;1.60;1.30;;;;;;;0.82;100.00;102016.64;106008;1254;72740;-74
2024/02/19 02:47:34;;;;;;;1.80;1.60;;;;;;;0.83;100.00;102019.23;105956;1254;59656;-74
2024/02/19 02:50:02;;;;;;;1.70;1.40;;;;;;;0.82;100.00;102023.36;105983;1251;59974;-76
2024/02/19 02:52:29;;;;;;;1.60;1.50;;;;;;;0.81;100.00;102024.56;105938;1250;72329;-73
2024/02/19 02:54:57;;;;;;;1.20;1.20;;;;;;;0.79;100.00;102022.30;106092;1254;63453;-75
2024/02/19 02:57:25;;;;;;;1.40;1.30;;;;;;;0.78;100.00;102026.79;106008;1252;73175;-74
2024/02/19 02:59:53;;;;;;;1.70;1.10;;;;;;;0.78;100.00;102027.48;105897;1251;59933;-75
2024/02/19 03:02:21;;;;;;;1.90;1.40;;;;;;;0.78;100.00;102025.59;106073;1250;59553;-75
2024/02/19 03:04:48;;;;;;;1.30;1.20;;;;;;;0.79;100.00;102026.27;106064;1254;71859;-74
2024/02/19 03:07:16;;;;;;;1.70;1.40;;;;;;;0.81;100.00;102022.49;106118;1251;61560;-76
2024/02/19 03:09:44;;;;;;;1.90;1.70;;;;;;;0.81;100.00;102021.80;106124;1252;71221;-76
2024/02/19 03:12:11;;;;;;;1.30;1.20;;;;;;;0.81;100.00;102022.66;106029;1254;60846;-75
2024/02/19 03:14:39;;;;;;;1.30;1.20;;;;;;;0.83;100.00;102021.64;105996;1252;59994;-73
2024/02/19 03:17:07;;;;;;;1.40;1.30;;;;;;;0.85;100.00;102022.51;106093;1250;75925;-74
2024/02/19 03:19:35;;;;;;;1.90;1.10;;;;;;;0.85;100.00;102021.14;105939;1250;61454;-77
2024/02/19 03:22:05;;;;;;;2.00;1.80;;;;;;;0.85;100.00;102026.12;105990;1254;70204;-75
2024/02/19 03:24:34;;;;;;;2.40;1.80;;;;;;;0.85;100.00;102026.30;105978;1251;61015;-74
2024/02/19 03:27:04;;;;;;;2.00;1.30;;;;;;;0.87;100.00;102027.15;105928;1252;60123;-73
2024/02/19 03:29:31;;;;;;;1.80;1.30;;;;;;;0.88;100.00;102026.98;105922;1249;72836;-76
2024/02/19 03:31:59;;;;;;;2.30;1.10;;;;;;;0.87;100.00;102028.52;106194;1252;64209;-75
2024/02/19 03:34:27;;;;;;;2.70;1.30;;;;;;;0.83;100.00;102026.80;106056;1254;72841;-77
2024/02/19 03:36:55;;;;;;;2.10;1.50;;;;;;;0.82;100.00;102025.42;109809;1250;61819;-75
2024/02/19 03:39:22;;;;;;;1.40;1.30;;;;;;;0.80;100.00;102024.90;109858;1251;60100;-75
2024/02/19 03:41:50;;;;;;;1.40;1.20;;;;;;;0.80;100.00;102025.92;109827;1250;71836;-75
2024/02/19 03:44:17;;;;;;;1.80;1.10;;;;;;;0.81;100.00;102024.39;109863;1251;62565;-75
2024/02/19 03:46:45;;;;;;;2.00;1.50;;;;;;;0.81;100.00;102022.66;109800;1250;72622;-75
2024/02/19 03:49:13;;;;;;;2.30;1.80;;;;;;;0.84;100.00;102021.13;109814;1251;60907;-74
2024/02/19 03:51:41;;;;;;;3.30;1.60;;;;;;;0.87;100.00;102024.23;109852;1249;57808;-76
2024/02/19 03:54:08;;;;;;;1.70;1.40;;;;;;;0.90;100.00;102025.45;109803;1254;73077;-74
2024/02/19 03:56:37;;;;;;;1.60;1.30;;;;;;;0.91;100.00;102027.51;109927;1249;63637;-75
2024/02/19 03:59:05;;;;;;;1.30;1.20;;;;;;;0.89;100.00;102029.23;109868;1250;72708;-75
2024/02/19 04:01:32;;;;;;;1.50;1.30;;;;;;;0.83;100.00;102027.33;109815;1251;59580;-75
2024/02/19 04:04:00;;;;;;;1.30;1.20;;;;;;;0.80;100.00;102027.81;109916;1250;58760;-75
2024/02/19 04:06:28;;;;;;;1.40;1.20;;;;;;;0.80;100.00;102031.27;109844;1251;73063;-74
2024/02/19 04:08:56;;;;;;;3.50;1.20;;;;;;;0.81;100.00;102030.75;109870;1250;63690;-75
2024/02/19 04:11:23;;;;;;;1.40;1.20;;;;;;;0.78;100.00;102036.08;109800;1251;71447;-75
2024/02/19 04:13:51;;;;;;;1.30;1.20;;;;;;;0.75;100.00;102032.96;109805;1251;60069;-75
2024/02/19 04:16:19;;;;;;;2.30;1.40;;;;;;;0.73;100.00;102038.64;109906;1250;58704;-75
2024/02/19 04:18:47;;;;;;;2.90;1.20;;;;;;;0.72;100.00;102038.98;109844;1250;73545;-77
2024/02/19 04:21:15;;;;;;;1.20;1.10;;;;;;;0.73;100.00;102035.71;109885;1249;63764;-77
2024/02/19 04:23:42;;;;;;;1.50;1.20;;;;;;;0.76;100.00;102037.63;109850;1251;72647;-75
2024/02/19 04:26:10;;;;;;;2.40;1.90;;;;;;;0.79;100.00;102041.60;109858;1250;61036;-76
2024/02/19 04:28:38;;;;;;;1.60;1.30;;;;;;;0.81;100.00;102039.88;109889;1250;59351;-76
2024/02/19 04:31:05;;;;;;;1.70;1.20;;;;;;;0.82;100.00;102041.42;109816;1251;71109;-74
2024/02/19 04:33:33;;;;;;;1.50;1.40;;;;;;;0.81;100.00;102044.70;109860;1250;63655;-75
2024/02/19 04:36:01;;;;;;;1.80;1.70;;;;;;;0.78;100.00;102046.24;109816;1250;71131;-76
2024/02/19 04:38:29;;;;;;;2.30;1.60;;;;;;;0.78;100.00;102052.61;109804;1249;59629;-75
2024/02/19 04:40:56;;;;;;;1.60;1.50;;;;;;;0.79;100.00;102054.16;109673;1251;58735;-76
2024/02/19 04:43:24;;;;;;;1.20;1.10;;;;;;;0.79;100.00;102057.60;109851;1249;72431;-75
2024/02/19 04:45:53;;;;;;;2.40;1.40;;;;;;;0.80;100.00;102059.49;109853;1250;63606;-76
2024/02/19 04:48:20;;;;;;;1.80;1.40;;;;;;;0.78;100.00;102059.67;109835;1254;72651;-76
2024/02/19 04:50:48;;;;;;;1.70;1.40;;;;;;;0.77;100.00;102061.38;109796;1250;59654;-76
2024/02/19 04:53:18;;;;;;;1.50;1.40;;;;;;;0.80;100.00;102060.70;109921;1250;58758;-77
2024/02/19 04:55:46;;;;;;;1.20;1.10;;;;;;;0.79;100.00;102068.61;109861;1250;71824;-77
2024/02/19 04:58:13;;;;;;;1.00;0.90;;;;;;;0.76;100.00;102068.95;109877;1250;62026;-77
2024/02/19 05:00:40;;;;;;;1.20;0.90;;;;;;;0.72;100.00;102071.86;109813;1251;72648;-76
2024/02/19 05:03:08;;;;;;;1.20;1.10;;;;;;;0.70;100.00;102073.92;109827;1250;59076;-76
2024/02/19 05:05:37;;;;;;;1.10;1.10;;;;;;;0.69;100.00;102076.33;109830;1250;60404;-76
2024/02/19 05:08:05;;;;;;;1.30;1.20;;;;;;;0.67;100.00;102071.48;109825;1250;73160;-78
2024/02/19 05:10:33;;;;;;;1.10;1.00;;;;;;;0.65;100.00;102075.27;109758;1250;63559;-76
2024/02/19 05:13:00;;;;;;;1.10;0.90;;;;;;;0.63;100.00;102081.80;109811;1253;72453;-76
2024/02/19 05:15:29;;;;;;;1.20;1.10;;;;;;;0.60;100.00;102081.95;109795;1250;59902;-75
2024/02/19 05:17:56;;;;;;;1.30;1.20;;;;;;;0.56;100.00;102082.96;109805;1248;58818;-75
2024/02/19 05:20:24;;;;;;;1.80;1.70;;;;;;;0.54;100.00;102085.38;109835;1251;73832;-77
2024/02/19 05:22:52;;;;;;;1.40;1.30;;;;;;;0.55;100.00;102087.09;109816;1249;62312;-76
2024/02/19 05:25:19;;;;;;;1.60;1.30;;;;;;;0.58;100.00;102085.73;109806;1250;72446;-76
2024/02/19 05:27:47;;;;;;;2.50;1.20;;;;;;;0.59;100.00;102088.67;109770;1250;61012;-76
2024/02/19 05:30:16;;;;;;;2.50;1.40;;;;;;;0.61;100.00;102089.36;109834;1250;58943;-76
2024/02/19 05:32:44;;;;;;;2.00;1.40;;;;;;;0.64;100.00;102090.41;109809;1250;73791;-76
2024/02/19 05:35:12;;;;;;;1.00;1.00;;;;;;;0.63;100.00;102086.63;109873;1249;61810;-77
2024/02/19 05:37:40;;;;;;;1.10;1.00;;;;;;;0.62;100.00;102086.61;109847;1251;72679;-77
2024/02/19 05:40:08;;;;;;;1.30;0.90;;;;;;;0.58;100.00;102086.94;109787;1254;59756;-76
2024/02/19 05:42:36;;;;;;;1.40;1.20;;;;;;;0.57;100.00;102092.45;109844;1251;60004;-76
2024/02/19 05:45:05;;;;;;;1.70;1.20;;;;;;;0.59;100.00;102087.63;109867;1250;72667;-76
2024/02/19 05:47:34;;;;;;;2.70;0.90;;;;;;;0.58;100.00;102090.22;109877;1249;62601;-77
2024/02/19 05:50:02;;;;;;;1.00;0.80;;;;;;;0.58;100.00;102096.92;109887;1251;72754;-76
2024/02/19 05:52:30;;;;;;;2.50;1.20;;;;;;;0.59;100.00;102094.86;109809;1251;59561;-77
2024/02/19 05:54:58;;;;;;;1.20;1.00;;;;;;;0.59;100.00;102097.96;109934;1249;60138;-74
2024/02/19 05:57:26;;;;;;;3.20;1.70;;;;;;;0.58;100.00;102096.41;109855;1251;72202;-74
2024/02/19 05:59:54;;;;;;;1.10;0.90;;;;;;;0.57;100.00;102100.02;109849;1249;63957;-76
2024/02/19 06:02:26;;;;;;;2.00;1.00;;;;;;;0.58;100.00;102102.27;109812;1250;72417;-76
2024/02/19 06:04:53;;;;;;;1.30;1.20;;;;;;;0.60;100.00;102101.77;109820;1250;60877;-76
2024/02/19 06:07:21;;;;;;;1.60;1.50;;;;;;;0.59;100.00;102101.73;109833;1250;58963;-76
2024/02/19 06:09:49;;;;;;;2.30;1.70;;;;;;;0.58;100.00;102107.06;109846;1249;73910;-76
2024/02/19 06:12:17;;;;;;;1.80;1.00;;;;;;;0.58;100.00;102103.80;109849;1250;63561;-75
2024/02/19 06:14:45;;;;;;;1.60;0.90;;;;;;;0.59;100.00;102108.27;109827;1249;72771;-77
2024/02/19 06:17:13;;;;;;;2.70;0.80;;;;;;;0.61;100.00;102107.42;109643;1251;61276;-76
2024/02/19 06:19:40;;;;;;;1.10;1.00;;;;;;;0.63;100.00;102105.04;109900;1250;60059;-75
2024/02/19 06:22:10;;;;;;;1.60;0.90;;;;;;;0.63;100.00;102105.89;109811;1250;73403;-75
2024/02/19 06:24:38;;;;;;;3.70;1.00;;;;;;;0.62;100.00;102108.13;109778;1250;62276;-75
2024/02/19 06:27:08;;;;;;;0.90;0.90;;;;;;;0.64;100.00;102105.89;109922;1251;72720;-74
2024/02/19 06:29:35;;;;;;;1.50;1.10;;;;;;;0.65;100.00;102101.43;109915;1251;59683;-76
2024/02/19 06:32:03;;;;;;;1.50;1.00;;;;;;;0.67;100.00;102105.58;109953;1251;60214;-75
2024/02/19 06:34:34;;;;;;;1.40;1.20;;;;;;;0.70;100.00;102100.77;109364;1254;72538;-75
2024/02/19 06:38:01;;;;;;;0.90;0.80;;;;;;;0.74;100.00;102106.83;106022;1291;599705;-74
2024/02/19 06:40:29;;;;;;;0.80;0.70;;;;;;;0.73;100.00;102106.29;108397;1265;59594;-73
2024/02/19 06:42:57;;;;;;;3.60;1.50;;;;;;;0.74;100.00;102112.33;107649;1266;58930;-75
2024/02/19 06:45:24;;;;;;;1.90;0.90;;;;;;;0.74;100.00;102112.33;105582;1263;70693;-77
2024/02/19 06:47:52;;;;;;;0.60;0.60;;;;;;;0.78;100.00;102108.90;105694;1256;62456;-75
2024/02/19 06:50:20;;;;;;;1.10;1.00;;;;;;;0.79;100.00;102109.93;105474;1262;70860;-76
2024/02/19 06:52:48;;;;;;;0.60;0.60;;;;;;;0.77;100.00;102112.50;105693;1256;205857;-77
2024/02/19 06:55:16;;;;;;;0.60;0.60;;;;;;;0.78;100.00;102110.62;105935;1259;59308;-77
2024/02/19 06:57:44;;;;;;;1.10;0.90;;;;;;;0.78;100.00;102110.11;105756;1259;70239;-76
2024/02/19 07:00:12;;;;;;;1.20;0.60;;;;;;;0.80;100.00;102113.55;105597;1259;65289;-77
2024/02/19 07:02:40;;;;;;;1.40;0.60;;;;;;;0.83;100.00;102114.95;105658;1256;73102;-78
2024/02/19 07:05:08;;;;;;;1.70;0.80;;;;;;;0.86;100.00;102108.76;105570;1257;60182;-77
2024/02/19 07:07:37;;;;;;;4.10;0.80;;;;;;;0.87;100.00;102110.83;105561;1259;59757;-75
2024/02/19 07:10:06;;;;;;;1.60;0.80;;;;;;;0.89;100.00;102108.92;105628;1259;72569;-77
2024/02/19 07:12:33;;;;;;;0.60;0.50;;;;;;;0.92;100.00;102110.68;105583;1259;62596;-77
2024/02/19 07:15:01;;;;;;;2.10;0.60;;;;;;;0.93;100.00;102111.88;105578;1259;71768;-76
2024/02/19 07:17:30;;;;;;;0.50;0.50;;;;;;;0.94;100.00;102109.82;105572;1257;59646;-77
2024/02/19 07:20:00;;;;;;;0.60;0.50;;;;;;;0.97;100.00;102111.39;105574;1259;59549;-77
2024/02/19 07:22:29;;;;;;;0.90;0.70;;;;;;;1.00;100.00;102113.80;105556;1255;71819;-77
2024/02/19 07:24:56;;;;;;;0.60;0.60;;;;;;;0.97;100.00;102112.25;105766;1259;61816;-76
2024/02/19 07:27:43;;;;;;;2.10;0.90;;;;;;;1.02;100.00;102110.54;105606;1259;70948;-77
2024/02/19 07:30:12;;;;;;;1.20;0.60;;;;;;;1.12;100.00;102111.61;105649;1260;61122;-77
2024/02/19 07:32:40;;;;;;;1.00;0.60;;;;;;;1.22;100.00;102112.85;105652;1259;61127;-76
2024/02/19 07:35:08;;;;;;;1.10;1.00;;;;;;;1.28;100.00;102113.36;105593;1259;75615;-75
2024/02/19 07:37:36;;;;;;;1.10;1.00;;;;;;;1.32;100.00;102117.87;105658;1259;63115;-77
2024/02/19 07:40:04;;;;;;;1.40;1.10;;;;;;;1.41;100.00;102119.94;105741;1255;73483;-77
2024/02/19 07:42:32;;;;;;;0.90;0.60;;;;;;;1.48;100.00;102120.14;105641;1253;61847;-76
2024/02/19 07:44:59;;;;;;;0.60;0.60;;;;;;;1.52;100.00;102114.98;105607;1259;59954;-75
2024/02/19 07:47:27;;;;;;;1.30;0.90;;;;;;;1.56;100.00;102118.60;105611;1259;73366;-75
2024/02/19 07:49:56;;;;;;;2.20;0.90;;;;;;;1.66;100.00;102120.52;105882;1257;64547;-77
2024/02/19 07:52:23;;;;;;;1.20;0.50;;;;;;;1.78;100.00;102122.59;105487;1254;72732;-76
2024/02/19 07:54:51;;;;;;;1.30;0.80;;;;;;;1.82;100.00;102124.15;105469;1259;59576;-77
2024/02/19 07:57:18;;;;;;;1.40;0.80;;;;;;;1.91;100.00;102123.11;105993;1254;59839;-77
2024/02/19 07:59:47;;;;;;;3.00;1.10;;;;;;;1.99;100.00;102122.95;105573;1260;73164;-77
2024/02/19 08:02:14;;;;;;;0.90;0.70;;;;;;;2.08;100.00;102125.53;105863;1255;65443;-75
2024/02/19 08:04:43;;;;;;;0.80;0.70;;;;;;;2.14;100.00;102128.80;105867;1254;71637;-76
2024/02/19 08:07:11;;;;;;;1.10;0.80;;;;;;;2.25;99.86;102130.00;105860;1254;59671;-77
2024/02/19 08:09:38;;;;;;;1.40;0.70;;;;;;;2.41;97.05;102125.66;105853;1252;59811;-75
2024/02/19 08:12:06;;;;;;;1.20;0.80;;;;;;;2.55;92.02;102124.60;105845;1257;73478;-76
2024/02/19 08:14:35;;;;;;;2.90;1.10;;;;;;;2.70;91.17;102124.20;105939;1256;62399;-76
2024/02/19 08:17:04;;;;;;;2.20;1.50;;;;;;;2.84;88.59;102119.67;106788;1254;73176;-77
2024/02/19 08:19:33;;;;;;;0.80;0.70;;;;;;;2.99;83.35;102118.92;107583;1252;59650;-76
2024/02/19 08:22:01;;;;;;;0.70;0.70;;;;;;;3.05;77.16;102124.08;107241;1256;59763;-74
2024/02/19 08:24:30;;;;;;;2.30;0.80;;;;;;;3.05;75.26;102115.61;107578;1255;73330;-74
2024/02/19 08:26:58;;;;;;;2.20;0.80;;;;;;;3.15;75.67;102117.29;108675;1253;64107;-75
2024/02/19 08:29:26;;;;;;;1.50;0.50;;;;;;;3.33;73.99;102119.78;108753;1251;71196;-75
2024/02/19 08:31:54;;;;;;;1.50;0.90;;;;;;;3.60;72.97;102122.56;108693;1253;59276;-76
2024/02/19 08:34:24;;;;;;;0.60;0.50;;;;;;;3.91;72.86;102123.38;108836;1255;59599;-76
2024/02/19 08:36:52;;;;;;;0.60;0.60;;;;;;;4.19;69.77;102123.30;108339;1251;71475;-76
2024/02/19 08:39:19;;;;;;;0.40;0.40;;;;;;;4.43;64.72;102128.95;108938;1255;62310;-76
2024/02/19 08:41:47;;;;;;;0.50;0.30;;;;;;;4.58;61.34;102125.85;106626;1252;72701;-75
2024/02/19 08:44:14;;;;;;;0.80;0.70;;;;;;;4.73;59.25;102127.77;106724;1252;60038;-75
2024/02/19 08:46:42;;;;;;;1.70;1.20;;;;;;;4.88;57.83;102123.27;106281;1256;59686;-77
2024/02/19 08:49:11;;;;;;;0.80;0.80;;;;;;;4.98;57.09;102129.56;106064;1256;72540;-76
2024/02/19 08:51:40;;;;;;;1.40;0.60;;;;;;;5.00;55.01;102129.36;106017;1252;63650;-76
2024/02/19 08:54:08;;;;;;;0.80;0.50;;;;;;;4.89;54.20;102126.02;106092;1255;74688;-76
2024/02/19 08:56:35;;;;;;;0.90;0.40;;;;;;;4.92;54.90;102128.08;105923;1251;59629;-77
2024/02/19 08:59:04;;;;;;;0.60;0.60;;;;;;;5.15;53.99;102124.65;105852;1257;60105;-75
2024/02/19 09:01:31;;;;;;;0.30;0.30;;;;;;;5.50;51.81;102128.34;105976;1255;71802;-77
2024/02/19 09:04:00;;;;;;;0.30;0.30;;;;;;;5.83;49.82;102123.85;105909;1257;63405;-77
2024/02/19 09:06:29;;;;;;;0.40;0.30;;;;;;;5.99;48.86;102127.44;105836;1257;70656;-77
2024/02/19 09:08:57;;;;;;;0.30;0.30;;;;;;;6.08;47.37;102123.64;105814;1256;60092;-75
2024/02/19 09:11:25;;;;;;;0.30;0.30;;;;;;;6.09;46.24;102122.41;105838;1251;62201;-74
2024/02/19 09:13:53;;;;;;;0.50;0.50;;;;;;;6.05;46.92;102122.30;105794;1252;73107;-75
2024/02/19 09:16:21;;;;;;;0.40;0.40;;;;;;;6.08;46.48;102118.77;105812;1257;62614;-77
2024/02/19 09:18:50;;;;;;;3.50;0.40;;;;;;;6.12;47.33;102117.14;105777;1257;72748;-76
2024/02/19 09:21:18;;;;;;;0.70;0.20;;;;;;;6.11;47.27;102117.50;106057;1253;60348;-77
2024/02/19 09:23:45;;;;;;;0.30;0.30;;;;;;;6.33;46.83;102112.98;105829;1256;59719;-76
2024/02/19 09:26:15;;;;;;;1.80;0.60;;;;;;;6.85;46.81;102106.39;105850;1256;73118;-75
2024/02/19 09:28:44;;;;;;;0.30;0.30;;;;;;;7.35;43.75;102110.37;105856;1266;62810;-76
2024/02/19 09:31:12;;;;;;;0.90;0.50;;;;;;;7.40;41.47;102108.33;105822;1256;72490;-75
2024/02/19 09:33:39;;;;;;;0.80;0.40;;;;;;;7.21;41.74;102101.46;105843;1252;59713;-77
2024/02/19 09:36:12;;;;;;;0.70;0.40;;;;;;;7.20;41.91;102100.61;105808;1256;59973;-74
2024/02/19 09:38:40;;;;;;;2.00;1.10;;;;;;;7.26;42.03;102099.79;105933;1252;75790;-76
2024/02/19 09:41:08;;;;;;;1.50;1.00;;;;;;;7.10;41.74;102099.61;105696;1268;63666;-77
2024/02/19 09:43:36;;;;;;;1.30;0.50;;;;;;;6.88;41.40;102099.90;105799;1257;70673;-76
2024/02/19 09:46:07;;;;;;;1.00;0.50;;;;;;;6.43;41.07;102104.95;105776;1257;59740;-76
2024/02/19 09:48:35;;;;;;;0.40;0.40;;;;;;;6.05;41.64;102111.73;105743;1256;60306;-75
2024/02/19 09:51:04;;;;;;;0.40;0.40;;;;;;;5.82;41.41;102112.40;105707;1251;73982;-77
2024/02/19 09:53:33;;;;;;;0.50;0.40;;;;;;;5.57;41.68;102114.53;105765;1259;65145;-75
2024/02/19 09:56:02;;;;;;;0.70;0.40;;;;;;;5.69;42.00;102116.60;105673;1257;72850;-77
2024/02/19 09:58:29;;;;;;;0.20;0.20;;;;;;;6.11;41.47;102112.98;105815;1256;61557;-75
2024/02/19 10:00:57;;;;;;;2.10;0.30;;;;;;;6.74;40.83;102105.22;105909;1258;59765;-79
2024/02/19 10:03:26;;;;;;;0.20;0.20;;;;;;;7.40;39.65;102101.54;105859;1257;72659;-78
2024/02/19 10:05:54;;;;;;;0.60;0.20;;;;;;;8.12;38.62;102106.23;105855;1259;62485;-77
2024/02/19 10:08:23;;;;;;;0.40;0.40;;;;;;;8.83;37.46;102100.00;105873;1267;74677;-77
2024/02/19 10:10:57;;;;;;;0.80;0.20;;;;;;;9.24;35.68;102099.45;105867;1257;59708;-78
2024/02/19 10:13:26;;;;;;;0.40;0.20;;;;;;;9.30;35.78;102094.23;105940;1251;59772;-78
2024/02/19 10:15:54;;;;;;;0.20;0.20;;;;;;;9.55;35.20;102095.88;105848;1256;75381;-78
2024/02/19 10:18:22;;;;;;;0.50;0.20;;;;;;;9.94;34.24;102095.66;105866;1257;64236;-78
2024/02/19 10:20:53;;;;;;;0.30;0.30;;;;;;;10.16;33.32;102091.40;105886;1258;73662;-77
2024/02/19 10:23:20;;;;;;;0.80;0.50;;;;;;;10.10;33.11;102088.49;105799;1257;59702;-80
2024/02/19 10:25:51;;;;;;;0.20;0.10;;;;;;;10.08;34.07;102088.55;105863;1251;59650;-77
2024/02/19 10:28:21;;;;;;;0.90;0.30;;;;;;;10.44;33.65;102083.13;105843;1252;75081;-78
2024/02/19 10:30:49;;;;;;;0.50;0.30;;;;;;;10.85;32.49;102079.16;106070;1251;63422;-77
2024/02/19 10:33:16;;;;;;;0.60;0.20;;;;;;;11.14;32.64;102079.30;105867;1251;72486;-78
2024/02/19 10:35:45;;;;;;;0.20;0.20;;;;;;;11.59;32.19;102083.62;105868;1257;59747;-78
2024/02/19 10:38:16;;;;;;;0.40;0.20;;;;;;;12.12;32.41;102082.86;106086;1256;59628;-76
2024/02/19 10:40:43;;;;;;;2.20;0.20;;;;;;;12.32;31.32;102074.46;106048;1257;71188;-77
2024/02/19 10:43:11;;;;;;;0.10;0.10;;;;;;;12.12;30.81;102080.59;105898;1256;65984;-77
2024/02/19 10:45:39;;;;;;;1.70;0.10;;;;;;;11.71;30.95;102072.11;106895;1256;73522;-77
2024/02/19 10:48:07;;;;;;;0.80;0.30;;;;;;;11.13;31.55;102066.37;108135;1253;61060;-76
2024/02/19 10:50:36;;;;;;;1.20;0.40;;;;;;;10.62;32.08;102066.54;107219;1251;61130;-79
2024/02/19 10:53:05;;;;;;;0.50;0.20;;;;;;;9.93;32.21;102064.41;106189;1256;76056;-78
2024/02/19 10:55:35;;;;;;;0.40;0.30;;;;;;;9.21;33.24;102061.51;105870;1252;62361;-78
2024/02/19 10:58:24;;;;;;;1.60;0.20;;;;;;;8.72;33.86;102057.59;105940;1259;74805;-79
2024/02/19 11:00:53;;;;;;;6.40;0.40;;;;;;;8.54;34.78;102055.50;105858;1254;60559;-77
2024/02/19 11:03:23;;;;;;;0.50;0.40;;;;;;;8.69;35.22;102051.23;105737;1259;60505;-79
2024/02/19 11:05:51;;;;;;;2.30;0.50;;;;;;;9.05;34.34;102057.65;105942;1251;73741;-78
2024/02/19 11:08:20;;;;;;;0.90;0.30;;;;;;;9.31;33.86;102056.67;105887;1254;63092;-77
2024/02/19 11:10:48;;;;;;;0.40;0.20;;;;;;;9.20;33.12;102050.73;105982;1251;72079;-76
2024/02/19 11:13:25;;;;;;;1.50;0.30;;;;;;;9.11;33.48;102061.13;106137;1254;60492;-78
2024/02/19 11:15:53;;;;;;;0.40;0.20;;;;;;;9.09;33.83;102051.42;106385;1257;62022;-76
2024/02/19 11:18:22;;;;;;;1.80;0.30;;;;;;;9.06;33.74;102047.52;106394;1251;72618;-78
2024/02/19 11:20:50;;;;;;;0.90;0.50;;;;;;;9.10;34.08;102047.91;106571;1257;61557;-77
2024/02/19 11:23:18;;;;;;;0.50;0.30;;;;;;;9.31;34.11;102050.90;106182;1254;73795;-76
2024/02/19 11:25:46;;;;;;;0.40;0.40;;;;;;;9.41;33.42;102047.96;106316;1256;62247;-78
2024/02/19 11:28:14;;;;;;;0.30;0.30;;;;;;;9.07;33.43;102048.70;106145;1254;60505;-78